Time;durP1;ratioP1;P1;durP2;ratioP2;P2;SDS_P1;SDS_P2;PMS_P1;PMS_P2;Temp;Humidity;BMP_temperature;BMP_pressure;BME280_temperature;BME280_humidity;BME280_pressure;Samples;Min_cycle;Max_cycle;Signal;HPM_P1;HPM_P2
2021/10/22 00:00:34;;;;;;;4.95;1.50;;;;;;;9.58;71.83;100143.66;10270213;28;20101;-56
2021/10/22 00:05:35;;;;;;;11.45;2.45;;;;;;;9.51;71.16;100137.97;10268859;28;20129;-56
2021/10/22 00:10:37;;;;;;;9.20;1.85;;;;;;;9.44;71.88;100142.06;10265661;28;20074;-58
2021/10/22 00:15:38;;;;;;;7.85;1.73;;;;;;;9.34;72.89;100131.31;10267493;28;20141;-58
2021/10/22 00:20:40;;;;;;;6.05;1.80;;;;;;;9.45;72.25;100159.72;10266505;28;20571;-57
2021/10/22 00:25:41;;;;;;;7.03;1.77;;;;;;;9.57;72.13;100157.91;10262712;28;20069;-57
2021/10/22 00:30:42;;;;;;;8.98;1.90;;;;;;;9.67;71.97;100145.59;10265853;28;20106;-57
2021/10/22 00:35:44;;;;;;;8.73;2.42;;;;;;;9.62;71.29;100142.44;10261225;28;20070;-57
2021/10/22 00:40:45;;;;;;;7.53;2.35;;;;;;;9.62;71.95;100147.75;10257204;28;20501;-57
2021/10/22 00:45:53;;;;;;;9.00;2.00;;;;;;;9.59;70.21;100152.47;10264996;28;20066;-57
2021/10/22 00:50:59;;;;;;;8.20;1.70;;;;;;;9.57;71.22;100155.25;10263291;28;20078;-58
2021/10/22 00:56:01;;;;;;;9.90;3.00;;;;;;;9.50;71.15;100162.88;10268096;28;20145;-58
2021/10/22 01:01:02;;;;;;;7.45;2.17;;;;;;;9.43;70.52;100171.41;10263304;28;20133;-57
2021/10/22 01:06:04;;;;;;;6.07;2.30;;;;;;;9.34;70.51;100160.53;10261904;28;20046;-61
2021/10/22 01:11:07;;;;;;;7.88;1.90;;;;;;;9.25;70.07;100157.72;10264957;28;20082;-57
2021/10/22 01:16:08;;;;;;;9.77;2.50;;;;;;;9.30;70.21;100163.56;10267371;28;20070;-57
2021/10/22 01:21:11;;;;;;;9.57;2.75;;;;;;;9.27;72.14;100166.44;10278073;28;20066;-57
2021/10/22 01:26:13;;;;;;;6.10;1.75;;;;;;;9.24;72.05;100169.34;10261953;28;20584;-57
2021/10/22 01:31:14;;;;;;;7.97;2.30;;;;;;;9.12;72.44;100171.94;10257030;28;20112;-55
2021/10/22 01:36:16;;;;;;;4.95;1.52;;;;;;;8.89;73.01;100172.81;10256808;28;20043;-57
2021/10/22 01:41:29;;;;;;;6.95;2.15;;;;;;;8.57;74.08;100168.97;10127311;28;20200;-59
2021/10/22 01:46:31;;;;;;;6.13;2.00;;;;;;;8.49;73.97;100172.16;10147795;28;20052;-58
2021/10/22 01:51:32;;;;;;;5.70;1.40;;;;;;;8.58;74.97;100170.63;10145640;28;20393;-59
2021/10/22 01:56:34;;;;;;;6.20;2.05;;;;;;;8.61;74.26;100174.88;10151685;29;20122;-60
2021/10/22 02:01:35;;;;;;;5.07;1.90;;;;;;;8.54;74.13;100177.16;10152930;29;20080;-59
2021/10/22 02:06:37;;;;;;;7.40;1.88;;;;;;;8.62;74.27;100176.59;10157796;29;20631;-60
2021/10/22 02:11:38;;;;;;;8.13;2.75;;;;;;;8.71;74.03;100181.22;10163438;29;20139;-60
2021/10/22 02:16:40;;;;;;;7.47;2.13;;;;;;;8.79;73.87;100180.63;10156679;29;20472;-59
2021/10/22 02:21:41;;;;;;;6.75;1.60;;;;;;;8.67;73.73;100174.44;10153503;29;20075;-59
2021/10/22 02:26:43;;;;;;;7.53;2.35;;;;;;;8.79;73.54;100188.59;10156780;29;20060;-59
2021/10/22 02:31:44;;;;;;;9.20;2.92;;;;;;;8.75;74.25;100193.31;10156304;29;20143;-59
2021/10/22 02:36:46;;;;;;;7.25;1.85;;;;;;;8.76;73.82;100194.13;10156337;29;20116;-60
2021/10/22 02:41:47;;;;;;;6.75;2.58;;;;;;;8.80;73.62;100200.94;10156975;29;20142;-59
2021/10/22 02:46:48;;;;;;;9.57;2.38;;;;;;;8.67;72.33;100190.34;10156185;29;20526;-60
2021/10/22 02:51:50;;;;;;;8.57;2.47;;;;;;;8.77;73.46;100191.38;10156584;29;20123;-60
2021/10/22 02:56:51;;;;;;;7.85;2.13;;;;;;;8.73;73.09;100189.91;10156331;29;20158;-59
2021/10/22 03:01:53;;;;;;;7.63;1.75;;;;;;;8.71;72.47;100189.16;10150957;29;20114;-59
2021/10/22 03:06:55;;;;;;;8.40;1.88;;;;;;;8.57;73.06;100197.28;10154354;29;20667;-60
2021/10/22 03:11:56;;;;;;;8.35;2.38;;;;;;;8.62;73.02;100184.53;10154217;29;20386;-59
2021/10/22 03:16:58;;;;;;;7.30;1.80;;;;;;;8.68;73.12;100200.00;10154385;29;20183;-60
2021/10/22 03:21:59;;;;;;;5.20;2.00;;;;;;;8.63;72.75;100183.56;10155659;29;20076;-60
2021/10/22 03:27:01;;;;;;;10.65;2.88;;;;;;;8.69;72.34;100199.03;10141211;28;20071;-60
2021/10/22 03:32:02;;;;;;;6.75;2.22;;;;;;;8.74;73.06;100202.22;10169659;29;20143;-60
2021/10/22 03:37:04;;;;;;;7.85;2.50;;;;;;;8.74;72.62;100207.53;10149832;29;20568;-60
2021/10/22 03:42:05;;;;;;;6.13;2.13;;;;;;;8.60;73.01;100205.88;10155113;29;20138;-60
2021/10/22 03:47:07;;;;;;;4.53;1.95;;;;;;;8.45;73.08;100193.72;10153657;29;20075;-60
2021/10/22 03:52:08;;;;;;;7.25;2.10;;;;;;;8.52;73.30;100210.88;10155529;29;20052;-60
2021/10/22 03:57:10;;;;;;;9.90;2.53;;;;;;;8.42;73.65;100205.38;10154365;29;20100;-60
2021/10/22 04:02:11;;;;;;;6.97;2.78;;;;;;;8.58;73.17;100205.13;10147446;28;20052;-59
2021/10/22 04:07:13;;;;;;;14.32;3.72;;;;;;;8.60;72.74;100208.53;10152607;29;20044;-59
2021/10/22 04:12:14;;;;;;;5.20;2.38;;;;;;;8.40;72.71;100225.00;10147509;29;20079;-60
2021/10/22 04:17:15;;;;;;;6.40;2.22;;;;;;;8.21;73.55;100220.16;10149498;29;20220;-60
2021/10/22 04:22:17;;;;;;;7.45;2.80;;;;;;;8.22;72.73;100227.19;10164956;29;20083;-60
2021/10/22 04:27:18;;;;;;;4.50;2.20;;;;;;;7.97;74.46;100224.47;10153184;29;20095;-59
2021/10/22 04:32:20;;;;;;;7.22;2.65;;;;;;;7.85;74.43;100235.06;10152022;29;20134;-60
2021/10/22 04:37:31;;;;;;;8.57;2.50;;;;;;;7.70;74.11;100234.31;10166975;29;20091;-60
2021/10/22 04:42:37;;;;;;;6.95;2.42;;;;;;;7.72;74.51;100235.91;10151522;29;20044;-60
2021/10/22 04:47:40;;;;;;;6.60;2.50;;;;;;;7.57;73.98;100229.84;10152636;29;20414;-60
2021/10/22 04:52:41;;;;;;;6.05;2.08;;;;;;;7.33;74.70;100218.28;10152319;29;20067;-60
2021/10/22 04:57:43;;;;;;;4.50;1.95;;;;;;;7.14;77.04;100226.63;10152382;29;20048;-60
2021/10/22 05:02:45;;;;;;;9.82;2.72;;;;;;;7.18;75.60;100217.53;10151310;28;20080;-60
2021/10/22 05:07:46;;;;;;;8.95;2.83;;;;;;;6.96;76.05;100237.47;10124796;29;20056;-61
2021/10/22 05:12:48;;;;;;;6.72;2.03;;;;;;;6.85;77.05;100239.97;10141362;28;20040;-60
2021/10/22 05:17:49;;;;;;;7.82;2.88;;;;;;;6.71;76.39;100251.44;10140152;28;20127;-60
2021/10/22 05:22:51;;;;;;;9.40;2.60;;;;;;;6.71;78.16;100244.34;10155434;29;20566;-58
2021/10/22 05:27:53;;;;;;;10.30;3.05;;;;;;;6.87;78.84;100253.94;10134982;29;20540;-60
2021/10/22 05:32:54;;;;;;;7.60;3.08;;;;;;;6.92;77.14;100246.56;10157307;28;20056;-60
2021/10/22 05:37:56;;;;;;;7.70;2.92;;;;;;;6.93;76.63;100250.88;10158949;29;20207;-59
2021/10/22 05:42:57;;;;;;;6.97;2.75;;;;;;;6.73;76.72;100250.38;10153081;28;20108;-53
2021/10/22 05:47:58;;;;;;;8.38;2.60;;;;;;;6.89;77.39;100258.19;10136968;28;20075;-57
2021/10/22 05:53:00;;;;;;;12.57;3.13;;;;;;;7.02;75.69;100255.56;10154996;28;20075;-51
2021/10/22 05:58:02;;;;;;;6.80;2.65;;;;;;;7.02;76.55;100267.97;10146795;28;20159;-52
2021/10/22 06:03:03;;;;;;;9.50;3.15;;;;;;;6.92;76.10;100275.69;10149772;28;20429;-59
2021/10/22 06:08:07;;;;;;;6.70;2.95;;;;;;;6.93;75.92;100280.00;10149725;29;20129;-59
2021/10/22 06:13:08;;;;;;;8.10;3.22;;;;;;;6.98;75.84;100290.28;10147531;28;20435;-60
2021/10/22 06:18:11;;;;;;;8.63;3.28;;;;;;;7.00;77.50;100296.34;10153033;28;20063;-59
2021/10/22 06:28:14;;;;;;;14.88;3.30;;;;;;;7.17;75.88;100297.88;10143772;28;20135;-59
2021/10/22 06:33:15;;;;;;;10.90;3.28;;;;;;;7.21;75.18;100299.38;10152900;28;20127;-60
2021/10/22 06:38:17;;;;;;;10.18;4.00;;;;;;;7.34;76.58;100302.06;10157396;28;20091;-60
2021/10/22 06:43:20;;;;;;;9.35;3.30;;;;;;;7.54;75.46;100316.66;10157534;28;20171;-60
2021/10/22 06:48:21;;;;;;;8.43;2.70;;;;;;;7.73;75.72;100332.13;10152827;28;20048;-60
2021/10/22 06:53:23;;;;;;;7.85;3.17;;;;;;;7.95;74.17;100336.84;10160271;28;20513;-61
2021/10/22 06:58:24;;;;;;;10.90;4.30;;;;;;;8.14;73.39;100347.03;10161652;28;20589;-59
2021/10/22 07:03:28;;;;;;;5.85;2.53;;;;;;;8.24;72.40;100345.44;10152478;28;20138;-59
2021/10/22 07:08:29;;;;;;;10.52;2.75;;;;;;;8.25;71.45;100343.63;10156760;28;20597;-59
2021/10/22 07:13:31;;;;;;;9.63;2.97;;;;;;;8.39;73.64;100356.81;10163639;28;20143;-59
2021/10/22 07:18:33;;;;;;;8.43;3.40;;;;;;;8.35;70.88;100350.00;10159721;28;20044;-58
2021/10/22 07:23:35;;;;;;;8.75;3.40;;;;;;;8.52;69.93;100345.34;10156843;28;20075;-60
2021/10/22 07:28:36;;;;;;;7.78;3.05;;;;;;;8.43;70.24;100355.59;10160323;28;20071;-60
2021/10/22 07:33:39;;;;;;;6.60;2.42;;;;;;;8.45;70.13;100364.38;10158941;28;20063;-59
2021/10/22 07:38:44;;;;;;;7.45;3.40;;;;;;;8.46;68.99;100363.38;10189763;23;20076;-63
2021/10/22 07:43:47;;;;;;;8.35;3.22;;;;;;;8.55;69.96;100369.03;10187690;28;20461;-64
2021/10/22 07:48:48;;;;;;;12.32;3.88;;;;;;;8.81;68.49;100362.72;10190440;28;20143;-63
2021/10/22 07:53:50;;;;;;;9.88;3.05;;;;;;;9.03;67.01;100353.19;10191223;28;20684;-65
2021/10/22 07:58:52;;;;;;;7.03;2.38;;;;;;;9.10;68.07;100365.09;10178358;28;20137;-65
2021/10/22 08:04:13;;;;;;;11.10;2.90;;;;;;;9.12;65.94;100365.81;10165194;29;24703;-65
2021/10/22 08:09:15;;;;;;;11.20;3.20;;;;;;;9.01;67.17;100347.16;10189304;28;20560;-67
2021/10/22 08:14:16;;;;;;;7.35;2.50;;;;;;;9.02;67.25;100355.03;10187148;28;20056;-66
2021/10/22 08:19:18;;;;;;;11.57;2.63;;;;;;;8.83;68.74;100344.88;10185590;28;20100;-64
2021/10/22 08:24:19;;;;;;;7.75;3.55;;;;;;;9.12;67.30;100339.25;10178810;29;20106;-65
2021/10/22 08:29:22;;;;;;;7.90;3.33;;;;;;;9.45;68.16;100328.91;10186740;28;20071;-65
2021/10/22 08:34:24;;;;;;;6.20;2.72;;;;;;;9.50;65.27;100332.94;10189877;28;20073;-64
2021/10/22 08:39:25;;;;;;;8.95;2.83;;;;;;;9.62;66.81;100335.63;10181386;28;20076;-64
2021/10/22 08:44:30;;;;;;;6.72;2.70;;;;;;;9.73;64.74;100343.63;10194738;28;20138;-64
2021/10/22 08:49:33;;;;;;;7.45;3.03;;;;;;;9.81;64.57;100357.19;10176887;28;20234;-66
2021/10/22 08:54:35;;;;;;;8.52;2.42;;;;;;;10.48;61.59;100354.78;10178383;29;20118;-66
2021/10/22 08:59:48;;;;;;;9.95;2.65;;;;;;;10.70;60.46;100348.63;10190158;28;21236;-66
2021/10/22 09:04:49;;;;;;;4.60;2.35;;;;;;;11.00;61.03;100357.78;10193339;28;20486;-63
2021/10/22 09:10:09;;;;;;;6.40;2.58;;;;;;;11.20;58.84;100354.38;10183553;28;20538;-65
2021/10/22 09:15:14;;;;;;;9.30;2.42;;;;;;;11.40;58.95;100358.06;10187580;28;20052;-63
2021/10/22 09:20:21;;;;;;;8.10;2.30;;;;;;;11.78;57.20;100355.84;10184427;28;20656;-65
2021/10/22 09:25:25;;;;;;;8.90;3.60;;;;;;;11.99;56.67;100362.09;10184395;28;20166;-66
2021/10/22 09:30:33;;;;;;;5.47;2.03;;;;;;;12.72;54.10;100361.19;10186455;28;20055;-65
2021/10/22 09:35:44;;;;;;;5.10;2.38;;;;;;;13.19;52.96;100365.94;10174766;28;20610;-66
2021/10/22 09:40:52;;;;;;;5.82;1.63;;;;;;;13.90;52.16;100367.56;10189371;28;20255;-67
2021/10/22 09:46:19;;;;;;;8.75;2.60;;;;;;;17.02;42.55;100353.75;10169969;28;20086;-66
2021/10/22 09:51:23;;;;;;;8.23;1.98;;;;;;;17.93;39.79;100362.84;10152443;28;20134;-66
2021/10/22 09:56:27;;;;;;;5.90;2.53;;;;;;;18.54;38.25;100357.03;10143883;28;20096;-67
2021/10/22 10:01:39;;;;;;;5.22;1.73;;;;;;;17.75;39.99;100371.06;10149605;28;20467;-70
2021/10/22 10:06:43;;;;;;;8.88;2.95;;;;;;;17.57;39.61;100370.38;10144642;28;20058;-66
2021/10/22 10:11:45;;;;;;;;;;;;;;;17.47;38.78;100362.44;10159267;28;20131;-66
2021/10/22 10:16:48;;;;;;;5.30;1.80;;;;;;;18.49;37.63;100356.69;10161557;28;19974;-65
2021/10/22 10:21:55;;;;;;;8.17;2.07;;;;;;;21.98;33.15;100358.41;10162369;28;20051;-65
2021/10/22 10:27:14;;;;;;;6.57;2.17;;;;;;;22.87;29.10;100357.75;10163861;28;20071;-65
2021/10/22 10:32:18;;;;;;;6.40;1.92;;;;;;;24.78;26.61;100346.66;10152651;28;20047;-66
2021/10/22 10:37:35;;;;;;;5.65;1.50;;;;;;;27.69;23.57;100338.91;10157460;28;20150;-66
2021/10/22 10:42:46;;;;;;;5.18;1.70;;;;;;;27.61;23.13;100331.88;10155325;28;20115;-66
2021/10/22 10:47:55;;;;;;;6.60;1.45;;;;;;;28.05;22.67;100339.81;10152627;28;20144;-66
2021/10/22 10:52:59;;;;;;;3.72;1.35;;;;;;;28.26;21.92;100340.31;10160484;28;20126;-65
2021/10/22 10:58:06;;;;;;;3.95;1.30;;;;;;;29.37;21.02;100325.63;10158228;28;20051;-68
2021/10/22 11:03:12;;;;;;;6.07;1.42;;;;;;;29.84;19.90;100325.34;10158408;28;20597;-66
2021/10/22 11:08:14;;;;;;;5.13;2.38;;;;;;;31.25;18.74;100305.78;10153792;28;20052;-65
2021/10/22 11:13:16;;;;;;;6.32;1.50;;;;;;;31.36;18.00;100329.56;10155692;28;20063;-67
2021/10/22 11:18:18;;;;;;;;;;;;;;;30.08;19.36;100305.97;10156302;28;20170;-67
2021/10/22 11:23:37;;;;;;;3.50;1.30;;;;;;;30.15;19.62;100306.63;10156825;28;19923;-66
2021/10/22 11:28:39;;;;;;;2.17;0.98;;;;;;;29.55;20.33;100299.91;10156293;28;20080;-67
2021/10/22 11:33:42;;;;;;;4.68;1.10;;;;;;;32.71;17.55;100301.06;10156815;28;20123;-67
2021/10/22 11:38:44;;;;;;;5.45;1.10;;;;;;;32.60;16.14;100292.72;10154883;28;20155;-66
2021/10/22 11:44:08;;;;;;;2.85;0.90;;;;;;;32.36;15.71;100303.38;10160168;28;20087;-66
2021/10/22 11:49:22;;;;;;;3.72;0.90;;;;;;;32.40;16.54;100285.22;10169368;28;20044;-66
2021/10/22 11:54:40;;;;;;;2.78;0.68;;;;;;;32.54;15.88;100287.47;10157588;28;20320;-67
2021/10/22 11:59:57;;;;;;;3.88;0.55;;;;;;;30.97;16.95;100307.69;10156551;28;20079;-66
2021/10/22 12:05:06;;;;;;;2.40;0.38;;;;;;;29.27;17.75;100304.34;10149368;28;20126;-66
2021/10/22 12:10:10;;;;;;;2.17;0.73;;;;;;;26.10;20.38;100314.19;10165225;28;20506;-67
2021/10/22 12:15:15;;;;;;;3.58;0.75;;;;;;;27.59;19.91;100306.66;10148597;28;20075;-67
2021/10/22 12:20:17;;;;;;;1.08;0.50;;;;;;;27.13;19.39;100302.72;10152146;28;20497;-67
2021/10/22 12:25:20;;;;;;;;;;;;;;;26.23;21.63;100315.13;10152104;29;20139;-66
2021/10/22 12:30:24;;;;;;;2.67;0.40;;;;;;;25.87;21.22;100311.25;10152211;28;19934;-66
2021/10/22 12:35:45;;;;;;;2.53;0.50;;;;;;;23.19;24.26;100313.84;10155465;28;20168;-65
2021/10/22 12:40:53;;;;;;;2.03;0.50;;;;;;;20.91;28.58;100316.69;10154779;28;20055;-64
2021/10/22 12:46:03;;;;;;;2.15;0.80;;;;;;;18.69;30.96;100313.97;10152728;28;20147;-64
2021/10/22 12:51:08;;;;;;;2.50;0.80;;;;;;;18.35;31.71;100307.88;10143240;28;20044;-64
2021/10/22 12:56:25;;;;;;;3.72;0.80;;;;;;;22.28;26.83;100329.25;10139022;28;20097;-65
2021/10/22 13:01:32;;;;;;;1.88;0.57;;;;;;;21.48;27.36;100325.84;10151138;28;20389;-64
2021/10/22 13:06:50;;;;;;;5.43;1.13;;;;;;;20.71;28.95;100316.47;10141945;28;20060;-65
2021/10/22 13:22:29;;;;;;;1.45;0.50;;;;;;;28.82;19.26;100303.19;10125532;28;20591;-65
2021/10/22 13:27:31;;;;;;;2.25;0.68;;;;;;;28.94;18.67;100300.41;10160880;29;20152;-65
2021/10/22 13:32:33;;;;;;;3.40;1.15;;;;;;;30.01;18.17;100297.91;10173250;29;20147;-68
2021/10/22 13:37:36;;;;;;;2.30;0.52;;;;;;;31.81;17.47;100301.88;10169317;28;20776;-68
2021/10/22 13:42:38;;;;;;;2.35;0.60;;;;;;;32.59;15.96;100301.25;10283044;23;20133;-60
2021/10/22 13:47:40;;;;;;;3.67;0.70;;;;;;;28.24;20.13;100306.84;10295838;28;20129;-62
2021/10/22 13:52:41;;;;;;;3.10;0.95;;;;;;;27.06;21.31;100311.00;10302546;28;20055;-62
2021/10/22 13:57:46;;;;;;;2.53;1.02;;;;;;;23.43;25.11;100317.88;10299741;28;20075;-62
2021/10/22 14:02:48;;;;;;;2.78;0.80;;;;;;;22.04;27.88;100335.97;10302636;28;20078;-61
2021/10/22 14:07:50;;;;;;;1.92;0.93;;;;;;;21.17;28.58;100324.28;10297003;28;20100;-62
2021/10/22 14:13:14;;;;;;;2.47;0.82;;;;;;;18.52;33.12;100324.00;10300873;28;20104;-60
2021/10/22 14:18:34;;;;;;;3.17;0.80;;;;;;;17.19;36.01;100343.91;10308377;28;20061;-61
2021/10/22 14:28:55;;;;;;;3.17;1.00;;;;;;;15.82;39.41;100356.25;10315469;28;20151;-60
2021/10/22 14:33:56;;;;;;;3.88;1.15;;;;;;;15.30;41.15;100367.63;10303931;28;20053;-60
2021/10/22 14:38:58;;;;;;;2.75;1.10;;;;;;;14.97;41.66;100343.16;10302330;28;20141;-59
2021/10/22 14:44:04;;;;;;;3.20;1.25;;;;;;;18.34;34.96;100335.84;10315353;28;20077;-60
2021/10/22 14:54:08;;;;;;;4.60;0.90;;;;;;;15.57;41.24;100365.91;10311406;28;20081;-60
2021/10/22 14:59:11;;;;;;;4.95;1.50;;;;;;;15.11;42.23;100357.88;10315439;28;20053;-60
2021/10/22 15:04:13;;;;;;;2.65;0.90;;;;;;;14.36;44.38;100354.38;10306226;28;20452;-59
2021/10/22 15:09:15;;;;;;;3.05;1.10;;;;;;;14.23;44.37;100346.66;10307421;28;20077;-58
2021/10/22 15:14:17;;;;;;;4.07;1.00;;;;;;;14.07;45.08;100366.84;10310603;28;20077;-59
2021/10/22 15:19:18;;;;;;;2.47;0.75;;;;;;;13.72;45.92;100368.28;10312819;28;20168;-58
2021/10/22 15:24:20;;;;;;;3.08;0.60;;;;;;;13.54;46.63;100361.94;10316610;28;20172;-59
2021/10/22 15:29:21;;;;;;;4.50;0.98;;;;;;;13.55;46.83;100375.16;10315478;28;20165;-60
2021/10/22 15:34:23;;;;;;;3.10;0.55;;;;;;;13.19;47.80;100376.66;10304145;28;20484;-59
2021/10/22 15:39:24;;;;;;;3.83;1.15;;;;;;;13.27;47.90;100384.84;10313694;28;20734;-58
2021/10/22 15:44:28;;;;;;;2.63;0.80;;;;;;;13.01;48.54;100379.97;10307056;28;20112;-58
2021/10/22 15:49:33;;;;;;;1.98;0.50;;;;;;;12.92;48.93;100391.47;10306714;28;20082;-58
2021/10/22 15:54:35;;;;;;;;;;;;;;;12.88;49.33;100395.38;10308509;28;20217;-58
2021/10/22 15:59:36;;;;;;;3.05;1.50;;;;;;;12.79;49.44;100398.88;10289177;28;19925;-59
2021/10/22 16:04:39;;;;;;;3.45;1.08;;;;;;;12.62;50.95;100403.84;10296986;28;20164;-58
2021/10/22 16:09:49;;;;;;;5.68;1.77;;;;;;;12.66;50.37;100409.78;10294902;28;20053;-59
2021/10/22 16:14:56;;;;;;;3.13;1.20;;;;;;;12.83;50.11;100421.69;10297985;28;20109;-58
2021/10/22 16:20:00;;;;;;;7.28;1.52;;;;;;;12.62;50.82;100417.22;10303389;28;20168;-58
2021/10/22 16:25:03;;;;;;;3.28;1.10;;;;;;;12.45;51.38;100423.19;10294292;28;20156;-59
2021/10/22 16:30:06;;;;;;;2.17;0.70;;;;;;;12.34;51.89;100422.28;10294076;28;20129;-58
2021/10/22 16:40:27;;;;;;;5.25;1.17;;;;;;;12.29;52.38;100434.31;10296960;28;20463;-59
2021/10/22 16:45:29;;;;;;;3.28;1.15;;;;;;;12.01;52.54;100426.81;10291814;28;20144;-61
2021/10/22 16:50:30;;;;;;;2.38;1.00;;;;;;;11.96;53.18;100438.84;10298991;28;20579;-59
2021/10/22 16:55:33;;;;;;;6.70;1.90;;;;;;;11.78;53.98;100438.50;10299177;28;20888;-59
2021/10/22 17:00:34;;;;;;;2.60;0.90;;;;;;;11.87;54.24;100461.75;10301191;28;20217;-59
2021/10/22 17:05:36;;;;;;;2.47;0.70;;;;;;;11.90;54.17;100472.16;10296484;28;20058;-59
2021/10/22 17:10:37;;;;;;;4.13;1.13;;;;;;;11.97;54.01;100485.88;10295447;28;20217;-58
2021/10/22 17:15:39;;;;;;;4.10;1.10;;;;;;;11.87;54.34;100493.75;10302770;28;20467;-59
2021/10/22 17:20:40;;;;;;;4.38;1.17;;;;;;;11.85;55.00;100495.72;10298790;28;20146;-59
2021/10/22 17:25:45;;;;;;;7.57;1.50;;;;;;;11.90;54.68;100490.84;10296736;28;20518;-59
2021/10/22 17:30:46;;;;;;;3.22;2.58;;;;;;;11.86;55.02;100508.09;10347056;28;20103;-59
2021/10/22 17:35:48;;;;;;;3.03;0.90;;;;;;;11.79;54.71;100513.06;10354960;28;20046;-59
2021/10/22 17:40:50;;;;;;;3.35;1.27;;;;;;;11.80;54.89;100520.09;10351952;28;20389;-60
2021/10/22 17:45:52;;;;;;;4.80;1.20;;;;;;;11.75;55.00;100532.94;10348008;28;20133;-59
2021/10/22 17:50:53;;;;;;;6.38;1.27;;;;;;;11.80;55.63;100524.56;10354650;28;20128;-60
2021/10/22 17:55:55;;;;;;;3.38;1.23;;;;;;;11.71;55.67;100541.31;10352258;28;20152;-59
2021/10/22 18:00:57;;;;;;;3.28;1.50;;;;;;;11.72;55.53;100537.69;10347927;28;20160;-60
2021/10/22 18:05:59;;;;;;;4.07;1.20;;;;;;;11.68;56.05;100556.59;10353805;28;20104;-60
2021/10/22 18:11:02;;;;;;;2.90;1.40;;;;;;;11.65;56.23;100546.19;10351242;28;20137;-61
2021/10/22 18:16:04;;;;;;;3.53;1.05;;;;;;;11.55;56.00;100545.22;10351993;28;20551;-61
2021/10/22 18:21:06;;;;;;;6.45;2.38;;;;;;;11.63;55.96;100564.13;10352053;28;20189;-59
2021/10/22 18:26:07;;;;;;;3.92;1.52;;;;;;;11.60;56.48;100556.34;10354683;28;20081;-62
2021/10/22 18:31:11;;;;;;;3.08;1.15;;;;;;;11.67;56.56;100554.06;10351892;28;20092;-59
2021/10/22 18:36:14;;;;;;;3.65;1.33;;;;;;;11.54;56.57;100559.50;10357906;28;20149;-59
2021/10/22 18:41:18;;;;;;;5.45;1.30;;;;;;;11.44;57.24;100555.88;10351589;28;20119;-58
2021/10/22 18:46:24;;;;;;;3.92;1.30;;;;;;;11.38;56.90;100564.38;10356955;28;20116;-59
2021/10/22 18:51:25;;;;;;;4.95;2.17;;;;;;;11.24;58.56;100579.63;10355842;28;20072;-58
2021/10/22 18:56:27;;;;;;;5.05;1.27;;;;;;;11.26;58.17;100564.38;10346470;28;20522;-60
2021/10/22 19:01:29;;;;;;;4.82;1.70;;;;;;;11.35;60.62;100577.94;10354666;28;20116;-56
2021/10/22 19:11:38;;;;;;;3.30;1.20;;;;;;;11.17;58.71;100585.56;10343278;28;20145;-58
2021/10/22 19:16:40;;;;;;;3.78;1.38;;;;;;;11.05;59.53;100590.00;10345673;28;20493;-58
2021/10/22 19:21:42;;;;;;;3.40;1.17;;;;;;;11.10;59.65;100590.53;10352062;28;20133;-59
2021/10/22 19:26:45;;;;;;;6.03;1.27;;;;;;;11.10;59.27;100601.19;10354115;28;20057;-59
2021/10/22 19:31:47;;;;;;;6.53;2.33;;;;;;;11.03;59.54;100600.78;10348569;28;20070;-59
2021/10/22 19:36:48;;;;;;;5.53;1.52;;;;;;;11.14;59.50;100613.31;10345514;28;20053;-61
2021/10/22 19:41:50;;;;;;;3.17;1.52;;;;;;;11.30;59.47;100626.25;10334923;22;20042;-65
2021/10/22 19:46:52;;;;;;;6.57;1.80;;;;;;;11.22;59.60;100626.03;10310264;28;20077;-65
2021/10/22 19:51:54;;;;;;;2.00;1.38;;;;;;;11.29;59.85;100633.44;10314117;28;20141;-65
2021/10/22 19:56:55;;;;;;;5.43;1.63;;;;;;;11.26;59.94;100638.13;10288399;28;20053;-65
2021/10/22 20:01:57;;;;;;;5.88;1.75;;;;;;;11.18;60.08;100652.03;10285086;28;20055;-65
2021/10/22 20:06:59;;;;;;;6.30;1.75;;;;;;;11.14;60.18;100663.94;10298102;28;20101;-65
2021/10/22 20:12:00;;;;;;;4.32;1.40;;;;;;;11.12;60.86;100672.03;10312031;28;20169;-65
2021/10/22 20:17:02;;;;;;;4.70;1.33;;;;;;;11.23;61.45;100686.31;10294693;28;21403;-65
2021/10/22 20:22:04;;;;;;;5.55;1.55;;;;;;;11.41;59.89;100694.72;10301161;28;20086;-63
2021/10/22 20:27:05;;;;;;;4.00;1.80;;;;;;;11.48;60.58;100685.28;10286050;28;20431;-63
2021/10/22 20:32:08;;;;;;;2.88;1.55;;;;;;;11.57;60.33;100699.75;10290354;28;20132;-65
2021/10/22 20:37:09;;;;;;;3.03;1.50;;;;;;;11.41;60.27;100705.38;10287953;28;20047;-65
2021/10/22 20:42:11;;;;;;;7.07;2.90;;;;;;;11.18;61.27;100721.31;10298984;28;20046;-65
2021/10/22 20:47:14;;;;;;;5.90;1.50;;;;;;;11.14;61.65;100734.03;10294030;28;20078;-64
2021/10/22 20:57:36;;;;;;;8.55;1.50;;;;;;;10.96;62.27;100752.25;10307805;28;20213;-64
2021/10/22 21:02:40;;;;;;;3.30;1.48;;;;;;;10.92;62.41;100755.25;10302831;28;20621;-64
2021/10/22 21:07:42;;;;;;;5.00;1.50;;;;;;;11.05;62.98;100764.03;10298063;28;20047;-65
2021/10/22 21:12:43;;;;;;;3.95;1.40;;;;;;;11.26;62.42;100776.69;10301177;28;20085;-64
2021/10/22 21:17:45;;;;;;;4.20;1.13;;;;;;;11.16;62.44;100773.88;10309987;28;20038;-64
2021/10/22 21:22:47;;;;;;;4.30;1.00;;;;;;;11.36;62.51;100790.19;10301578;28;20497;-64
2021/10/22 21:27:48;;;;;;;5.20;1.63;;;;;;;11.10;62.52;100796.50;10307112;28;20330;-65
2021/10/22 21:32:51;;;;;;;3.40;1.15;;;;;;;11.16;62.97;100792.53;10283866;28;20090;-64
2021/10/22 21:37:53;;;;;;;3.35;1.27;;;;;;;11.31;63.54;100802.03;10309486;28;20074;-65
2021/10/22 21:42:55;;;;;;;1.33;0.70;;;;;;;11.10;64.25;100825.81;10301631;28;20073;-65
2021/10/22 21:47:56;;;;;;;2.22;0.70;;;;;;;10.84;66.64;100834.84;10302685;28;20046;-64
2021/10/22 21:52:58;;;;;;;3.00;1.10;;;;;;;10.80;68.22;100826.25;10286811;28;20162;-64
2021/10/22 21:57:59;;;;;;;2.28;0.80;;;;;;;10.70;70.27;100843.84;10301937;28;20054;-65
2021/10/22 22:03:04;;;;;;;4.97;1.08;;;;;;;10.47;71.61;100843.66;10306250;28;20059;-64
2021/10/22 22:08:06;;;;;;;2.55;0.65;;;;;;;10.67;70.21;100844.06;10301615;28;20125;-64
2021/10/22 22:13:07;;;;;;;3.05;0.73;;;;;;;11.01;70.42;100844.31;10286623;28;20050;-64
2021/10/22 22:18:09;;;;;;;1.73;0.50;;;;;;;11.22;69.67;100856.03;10311351;28;20458;-64
2021/10/22 22:23:10;;;;;;;1.23;0.52;;;;;;;11.31;68.69;100850.03;10302821;28;20126;-64
2021/10/22 22:28:13;;;;;;;4.07;0.90;;;;;;;11.28;68.70;100866.25;10306518;28;20130;-64
2021/10/22 22:33:14;;;;;;;3.78;1.20;;;;;;;11.23;67.70;100872.88;10312023;28;20137;-64
2021/10/22 22:38:16;;;;;;;3.40;1.08;;;;;;;11.24;68.33;100872.75;10306536;28;20558;-64
2021/10/22 22:43:17;;;;;;;3.20;0.90;;;;;;;11.26;67.62;100878.84;10310571;28;20046;-65
2021/10/22 22:48:19;;;;;;;1.70;0.40;;;;;;;11.25;67.99;100877.13;10310167;28;20082;-64
2021/10/22 22:53:20;;;;;;;2.20;0.80;;;;;;;11.36;67.95;100888.81;10307076;28;20050;-65
2021/10/22 22:58:22;;;;;;;0.98;0.70;;;;;;;11.37;66.95;100886.03;10305353;28;20054;-65
2021/10/22 23:03:23;;;;;;;4.40;1.08;;;;;;;11.44;67.41;100894.41;10298799;28;20069;-65
2021/10/22 23:08:24;;;;;;;2.78;1.08;;;;;;;11.49;67.11;100897.63;10303993;28;20092;-65
2021/10/22 23:13:26;;;;;;;3.67;1.10;;;;;;;11.42;67.12;100915.03;10306487;28;20109;-64
2021/10/22 23:18:27;;;;;;;2.38;0.90;;;;;;;11.20;67.93;100919.25;10313733;28;20078;-64
2021/10/22 23:23:30;;;;;;;3.20;1.08;;;;;;;11.32;67.72;100905.03;10307569;28;20065;-64
2021/10/22 23:28:31;;;;;;;2.47;0.93;;;;;;;11.32;67.51;100907.69;10304285;28;20080;-64
2021/10/22 23:33:34;;;;;;;3.33;1.38;;;;;;;11.09;68.17;100924.50;10307200;28;20050;-67
2021/10/22 23:38:36;;;;;;;3.40;1.00;;;;;;;11.08;67.71;100918.34;10306933;28;20066;-64
2021/10/22 23:43:39;;;;;;;2.78;0.90;;;;;;;10.99;68.10;100929.66;10307166;28;20065;-64
2021/10/22 23:48:40;;;;;;;4.93;0.95;;;;;;;11.08;67.47;100928.13;10304839;28;20160;-64
2021/10/22 23:53:41;;;;;;;2.50;0.85;;;;;;;11.20;67.68;100940.59;10298914;28;20133;-64
2021/10/22 23:58:43;;;;;;;2.58;1.00;;;;;;;11.10;67.87;100948.38;10279744;28;20133;-64
